HECA - Cairo Intl. Airport

HECA 180830Z 28002KT 3000 HZ NSC 15/06 Q1024 NOSIG


Sceneries:

  • [FSX/P3D] SimDesignGroup: CAIRO INTL AIRPORT X - Buy from SDG
  • [FSX] FREEWARE: Cairo Intl Airport 2018 - Download from AVSIM
  • [FSX] FREEWARE: Cairo City 2012 - Download from AVSIM
  • [FSX] FREEWARE: AIG Cairo 2011 - Download from AVSIM


Briefing & Aerodrome Charts:

If are seeing this paragrapgh, it means that you don't have a web integerated PDF reader installed, however, you can still download the PDF from here.


Our Partners

VATSIM

VATSIM is the Virtual Air Traffic Simulation network, connecting people from around the world flying online or acting as virtual Air Traffic Controllers.

VATME

VATME - VATSIM Middle East Divison is part of the Africa and Middle East Region on the VATSIM Network.

Egyptair Virtual

Egyptair Virtual simulates the real life operations of Egyptair yet is not releated to the actual Egyptair.